Time,TemperatureF,DewpointF,PressureIn,WindDirection,WindDirectionDegrees,WindSpeedMPH,WindSpeedGustMPH,Humidity,HourlyPrecipIn,Conditions,Clouds,dailyrainin,SolarRadiationWatts/m^2,SoftwareType,DateUTC
2013-01-29 00:05:00,43.0,37.0,30.35,NE,50,0.0,2.0,80,0.00,,,0.00,0,weatherlink.com 1.10,2013-01-29 08:05:00,
2013-01-29 00:20:00,43.0,37.0,30.35,NE,50,0.0,3.0,80,0.00,,,0.00,0,weatherlink.com 1.10,2013-01-29 08:20:00,
2013-01-29 00:35:00,42.5,37.0,30.35,NE,51,2.0,5.0,80,0.00,,,0.00,0,weatherlink.com 1.10,2013-01-29 08:35:00,
2013-01-29 00:50:00,42.5,37.0,30.35,NE,51,1.0,2.0,80,0.00,,,0.00,0,weatherlink.com 1.10,2013-01-29 08:50:00,
2013-01-29 01:05:00,42.3,37.0,30.35,NW,323,0.0,3.0,80,0.00,,,0.00,0,weatherlink.com 1.10,2013-01-29 09:05:00,
2013-01-29 01:20:00,42.2,36.0,30.35,NNE,24,3.0,4.0,80,0.00,,,0.00,0,weatherlink.com 1.10,2013-01-29 09:20:00,
2013-01-29 01:35:00,42.5,37.0,30.35,NE,56,0.0,2.0,80,0.00,,,0.00,0,weatherlink.com 1.10,2013-01-29 09:35:00,
2013-01-29 01:50:00,45.1,39.0,30.35,NW,316,4.0,6.0,79,0.00,,,0.00,0,weatherlink.com 1.10,2013-01-29 09:50:00,
2013-01-29 02:05:00,46.5,39.0,30.35,WNW,290,6.0,10.0,76,0.00,,,0.00,0,weatherlink.com 1.10,2013-01-29 10:05:00,
2013-01-29 02:20:00,46.9,40.0,30.36,WNW,290,5.0,12.0,76,0.00,,,0.00,0,weatherlink.com 1.10,2013-01-29 10:20:00,
2013-01-29 02:35:00,46.8,40.0,30.35,WSW,247,5.0,12.0,76,0.00,,,0.00,0,weatherlink.com 1.10,2013-01-29 10:35:00,
2013-01-29 02:50:00,46.6,39.0,30.35,WNW,297,4.0,11.0,76,0.00,,,0.00,0,weatherlink.com 1.10,2013-01-29 10:50:00,
2013-01-29 03:05:00,46.1,39.0,30.35,NNE,18,2.0,6.0,76,0.00,,,0.00,0,weatherlink.com 1.10,2013-01-29 11:05:00,
2013-01-29 03:20:00,44.9,38.0,30.35,NNW,338,3.0,5.0,77,0.00,,,0.00,0,weatherlink.com 1.10,2013-01-29 11:20:00,
2013-01-29 03:35:00,44.2,37.0,30.36,NNE,17,0.0,4.0,77,0.00,,,0.00,0,weatherlink.com 1.10,2013-01-29 11:35:00,
2013-01-29 03:50:00,44.3,38.0,30.36,North,9,0.0,5.0,77,0.00,,,0.00,0,weatherlink.com 1.10,2013-01-29 11:50:00,
2013-01-29 04:05:00,45.1,39.0,30.36,NNW,334,0.0,6.0,78,0.00,,,0.00,0,weatherlink.com 1.10,2013-01-29 12:05:00,
2013-01-29 04:20:00,45.0,38.0,30.36,North,349,1.0,3.0,77,0.00,,,0.00,0,weatherlink.com 1.10,2013-01-29 12:20:00,
2013-01-29 04:35:00,43.7,38.0,30.36,WNW,286,2.0,5.0,79,0.00,,,0.00,0,weatherlink.com 1.10,2013-01-29 12:35:00,
2013-01-29 04:50:00,43.9,37.0,30.36,West,277,0.0,2.0,78,0.00,,,0.00,0,weatherlink.com 1.10,2013-01-29 12:50:00,
2013-01-29 05:05:00,42.7,37.0,30.37,NNE,23,0.0,4.0,79,0.00,,,0.00,0,weatherlink.com 1.10,2013-01-29 13:05:00,
2013-01-29 05:20:00,43.9,38.0,30.36,NW,306,1.0,4.0,80,0.00,,,0.00,0,weatherlink.com 1.10,2013-01-29 13:20:00,
2013-01-29 05:35:00,44.7,39.0,30.36,WNW,283,4.0,7.0,80,0.00,,,0.00,0,weatherlink.com 1.10,2013-01-29 13:35:00,
2013-01-29 05:50:00,45.3,39.0,30.36,NNW,346,2.0,8.0,79,0.00,,,0.00,0,weatherlink.com 1.10,2013-01-29 13:50:00,
2013-01-29 06:05:00,45.5,39.0,30.36,West,265,1.0,9.0,78,0.00,,,0.00,0,weatherlink.com 1.10,2013-01-29 14:05:00,
2013-01-29 06:21:00,46.0,40.0,30.36,NW,309,4.0,7.0,78,0.00,,,0.00,0,weatherlink.com 1.10,2013-01-29 14:21:00,
2013-01-29 06:35:00,46.0,39.0,30.36,West,271,1.0,4.0,77,0.00,,,0.00,0,weatherlink.com 1.10,2013-01-29 14:35:00,
2013-01-29 06:51:00,44.3,37.0,30.37,NNE,32,0.0,4.0,76,0.00,,,0.00,0,weatherlink.com 1.10,2013-01-29 14:51:00,
2013-01-29 07:06:00,42.5,36.0,30.36,NNE,31,4.0,5.0,78,0.00,,,0.00,0,weatherlink.com 1.10,2013-01-29 15:06:00,
2013-01-29 07:20:00,42.0,36.0,30.36,NE,35,2.0,4.0,79,0.00,,,0.00,0,weatherlink.com 1.10,2013-01-29 15:20:00,
2013-01-29 07:35:00,42.2,36.0,30.36,NNE,22,3.0,4.0,80,0.00,,,0.00,16,weatherlink.com 1.10,2013-01-29 15:35:00,
2013-01-29 07:50:00,42.4,37.0,30.37,NNE,22,2.0,3.0,80,0.00,,,0.00,40,weatherlink.com 1.10,2013-01-29 15:50:00,
2013-01-29 08:06:00,43.6,38.0,30.37,North,355,1.0,2.0,80,0.00,,,0.00,70,weatherlink.com 1.10,2013-01-29 16:06:00,
2013-01-29 08:21:00,45.5,39.0,30.37,NW,317,3.0,7.0,78,0.00,,,0.00,104,weatherlink.com 1.10,2013-01-29 16:21:00,
2013-01-29 08:36:00,47.0,40.0,30.37,NW,310,3.0,8.0,77,0.00,,,0.00,146,weatherlink.com 1.10,2013-01-29 16:36:00,
2013-01-29 08:51:00,47.9,40.0,30.37,West,277,3.0,9.0,75,0.00,,,0.00,207,weatherlink.com 1.10,2013-01-29 16:51:00,
2013-01-29 09:06:00,48.9,41.0,30.38,WNW,293,4.0,8.0,75,0.00,,,0.00,283,weatherlink.com 1.10,2013-01-29 17:06:00,
2013-01-29 09:21:00,49.7,42.0,30.37,WNW,303,3.0,8.0,74,0.00,,,0.00,301,weatherlink.com 1.10,2013-01-29 17:21:00,
2013-01-29 09:36:00,50.1,42.0,30.37,SW,230,6.0,13.0,74,0.00,,,0.00,308,weatherlink.com 1.10,2013-01-29 17:36:00,
2013-01-29 09:51:00,50.8,43.0,30.38,WSW,249,8.0,9.0,74,0.00,,,0.00,343,weatherlink.com 1.10,2013-01-29 17:51:00,
2013-01-29 10:06:00,51.1,43.0,30.38,West,279,3.0,14.0,75,0.00,,,0.00,374,weatherlink.com 1.10,2013-01-29 18:06:00,
2013-01-29 10:21:00,51.4,44.0,30.38,WNW,298,3.0,13.0,75,0.00,,,0.00,406,weatherlink.com 1.10,2013-01-29 18:21:00,
2013-01-29 10:36:00,51.5,44.0,30.38,West,261,11.0,14.0,75,0.00,,,0.00,457,weatherlink.com 1.10,2013-01-29 18:36:00,
2013-01-29 10:51:00,51.4,44.0,30.38,West,275,6.0,15.0,75,0.00,,,0.00,483,weatherlink.com 1.10,2013-01-29 18:51:00,
2013-01-29 11:06:00,51.5,44.0,30.37,West,273,7.0,14.0,75,0.00,,,0.00,461,weatherlink.com 1.10,2013-01-29 19:06:00,
2013-01-29 11:21:00,51.6,44.0,30.37,West,271,9.0,17.0,75,0.00,,,0.00,520,weatherlink.com 1.10,2013-01-29 19:21:00,
2013-01-29 11:36:00,51.5,44.0,30.36,WNW,282,11.0,22.0,75,0.00,,,0.00,515,weatherlink.com 1.10,2013-01-29 19:36:00,
2013-01-29 11:51:00,51.7,44.0,30.36,West,264,10.0,19.0,75,0.00,,,0.00,552,weatherlink.com 1.10,2013-01-29 19:51:00,
2013-01-29 12:06:00,52.9,45.0,30.36,WSW,250,11.0,16.0,74,0.00,,,0.00,561,weatherlink.com 1.10,2013-01-29 20:06:00,
2013-01-29 12:21:00,52.6,45.0,30.35,WSW,257,3.0,17.0,74,0.00,,,0.00,591,weatherlink.com 1.10,2013-01-29 20:21:00,
2013-01-29 12:36:00,52.1,44.0,30.35,West,279,9.0,18.0,74,0.00,,,0.00,575,weatherlink.com 1.10,2013-01-29 20:36:00,
2013-01-29 12:52:00,52.4,44.0,30.34,West,273,6.0,16.0,74,0.00,,,0.00,557,weatherlink.com 1.10,2013-01-29 20:52:00,
2013-01-29 13:07:00,52.6,45.0,30.34,West,269,8.0,20.0,74,0.00,,,0.00,561,weatherlink.com 1.10,2013-01-29 21:07:00,
2013-01-29 13:21:00,52.4,45.0,30.34,West,271,4.0,20.0,75,0.00,,,0.00,555,weatherlink.com 1.10,2013-01-29 21:21:00,
2013-01-29 13:36:00,52.8,45.0,30.32,WNW,300,12.0,17.0,74,0.00,,,0.00,536,weatherlink.com 1.10,2013-01-29 21:36:00,
2013-01-29 13:51:00,53.3,45.0,30.32,West,281,6.0,17.0,74,0.00,,,0.00,517,weatherlink.com 1.10,2013-01-29 21:51:00,
2013-01-29 14:06:00,54.2,46.0,30.31,West,265,8.0,13.0,73,0.00,,,0.00,492,weatherlink.com 1.10,2013-01-29 22:06:00,
2013-01-29 14:22:00,53.9,45.0,30.31,NNW,331,3.0,15.0,73,0.00,,,0.00,448,weatherlink.com 1.10,2013-01-29 22:22:00,
2013-01-29 14:36:00,53.3,45.0,30.32,SW,227,5.0,19.0,73,0.00,,,0.00,390,weatherlink.com 1.10,2013-01-29 22:36:00,
2013-01-29 14:51:00,53.2,45.0,30.32,West,267,6.0,16.0,74,0.00,,,0.00,403,weatherlink.com 1.10,2013-01-29 22:51:00,
2013-01-29 15:06:00,53.5,45.0,30.31,West,280,9.0,18.0,74,0.00,,,0.00,367,weatherlink.com 1.10,2013-01-29 23:06:00,
2013-01-29 15:22:00,54.3,46.0,30.32,West,272,12.0,17.0,73,0.00,,,0.00,330,weatherlink.com 1.10,2013-01-29 23:22:00,
2013-01-29 15:37:00,54.1,46.0,30.32,WNW,284,8.0,15.0,73,0.00,,,0.00,288,weatherlink.com 1.10,2013-01-29 23:37:00,
2013-01-29 15:52:00,53.8,45.0,30.31,West,262,5.0,16.0,73,0.00,,,0.00,213,weatherlink.com 1.10,2013-01-29 23:52:00,
2013-01-29 16:07:00,53.8,46.0,30.31,West,276,7.0,14.0,74,0.00,,,0.00,186,weatherlink.com 1.10,2013-01-30 00:07:00,
2013-01-29 16:22:00,54.5,46.0,30.31,NNW,333,6.0,10.0,73,0.00,,,0.00,134,weatherlink.com 1.10,2013-01-30 00:22:00,
2013-01-29 16:37:00,54.0,46.0,30.31,WNW,290,5.0,12.0,73,0.00,,,0.00,93,weatherlink.com 1.10,2013-01-30 00:37:00,
2013-01-29 16:52:00,53.1,45.0,30.32,WNW,283,4.0,12.0,74,0.00,,,0.00,54,weatherlink.com 1.10,2013-01-30 00:52:00,
2013-01-29 17:07:00,53.0,45.0,30.32,WNW,285,6.0,8.0,74,0.00,,,0.00,32,weatherlink.com 1.10,2013-01-30 01:07:00,
2013-01-29 17:22:00,52.1,44.0,30.32,WNW,286,2.0,10.0,75,0.00,,,0.00,16,weatherlink.com 1.10,2013-01-30 01:22:00,
2013-01-29 17:37:00,51.4,44.0,30.32,West,273,3.0,8.0,75,0.00,,,0.00,5,weatherlink.com 1.10,2013-01-30 01:37:00,
2013-01-29 17:52:00,50.3,43.0,30.33,WNW,296,3.0,3.0,75,0.00,,,0.00,0,weatherlink.com 1.10,2013-01-30 01:52:00,
2013-01-29 18:07:00,48.5,42.0,30.33,WNW,300,2.0,3.0,77,0.00,,,0.00,0,weatherlink.com 1.10,2013-01-30 02:07:00,
2013-01-29 18:22:00,47.7,41.0,30.33,NW,313,1.0,3.0,78,0.00,,,0.00,0,weatherlink.com 1.10,2013-01-30 02:22:00,
2013-01-29 18:37:00,47.3,41.0,30.33,NW,313,0.0,2.0,78,0.00,,,0.00,0,weatherlink.com 1.10,2013-01-30 02:37:00,
2013-01-29 18:52:00,46.2,40.0,30.34,NE,34,1.0,3.0,78,0.00,,,0.00,0,weatherlink.com 1.10,2013-01-30 02:52:00,
2013-01-29 19:07:00,46.0,40.0,30.34,NE,34,0.0,1.0,79,0.00,,,0.00,0,weatherlink.com 1.10,2013-01-30 03:07:00,
2013-01-29 19:22:00,46.0,40.0,30.35,NE,38,1.0,5.0,79,0.00,,,0.00,0,weatherlink.com 1.10,2013-01-30 03:22:00,
2013-01-29 19:37:00,46.3,40.0,30.34,NNW,336,1.0,4.0,80,0.00,,,0.00,0,weatherlink.com 1.10,2013-01-30 03:37:00,
2013-01-29 19:52:00,46.2,40.0,30.34,NNE,28,4.0,6.0,80,0.00,,,0.00,0,weatherlink.com 1.10,2013-01-30 03:52:00,
2013-01-29 20:07:00,46.0,40.0,30.35,NE,37,3.0,6.0,79,0.00,,,0.00,0,weatherlink.com 1.10,2013-01-30 04:07:00,
2013-01-29 20:22:00,46.4,41.0,30.34,NNE,19,4.0,4.0,80,0.00,,,0.00,0,weatherlink.com 1.10,2013-01-30 04:22:00,
2013-01-29 20:37:00,46.8,41.0,30.34,North,10,1.0,3.0,79,0.00,,,0.00,0,weatherlink.com 1.10,2013-01-30 04:37:00,
2013-01-29 20:52:00,46.7,41.0,30.35,North,11,1.0,2.0,79,0.00,,,0.00,0,weatherlink.com 1.10,2013-01-30 04:52:00,
2013-01-29 21:07:00,45.5,40.0,30.34,NNE,15,0.0,4.0,80,0.00,,,0.00,0,weatherlink.com 1.10,2013-01-30 05:07:00,
2013-01-29 21:22:00,45.5,39.0,30.34,NE,40,3.0,4.0,79,0.00,,,0.00,0,weatherlink.com 1.10,2013-01-30 05:22:00,
2013-01-29 21:37:00,45.6,40.0,30.34,North,5,1.0,5.0,80,0.00,,,0.00,0,weatherlink.com 1.10,2013-01-30 05:37:00,
2013-01-29 21:52:00,46.2,40.0,30.34,North,10,4.0,5.0,80,0.00,,,0.00,0,weatherlink.com 1.10,2013-01-30 05:52:00,
2013-01-29 22:07:00,47.3,41.0,30.34,WNW,298,1.0,6.0,79,0.00,,,0.00,0,weatherlink.com 1.10,2013-01-30 06:07:00,
2013-01-29 22:22:00,47.1,41.0,30.34,North,350,2.0,4.0,78,0.00,,,0.00,0,weatherlink.com 1.10,2013-01-30 06:22:00,
2013-01-29 22:37:00,46.2,40.0,30.34,North,355,2.0,3.0,79,0.00,,,0.00,0,weatherlink.com 1.10,2013-01-30 06:37:00,
2013-01-29 22:52:00,44.4,38.0,30.34,NNE,18,2.0,4.0,79,0.00,,,0.00,0,weatherlink.com 1.10,2013-01-30 06:52:00,
2013-01-29 23:07:00,44.0,38.0,30.34,NNE,27,2.0,4.0,80,0.00,,,0.00,0,weatherlink.com 1.10,2013-01-30 07:07:00,
2013-01-29 23:22:00,43.8,38.0,30.34,NE,49,4.0,5.0,81,0.00,,,0.00,0,weatherlink.com 1.10,2013-01-30 07:22:00,
2013-01-29 23:37:00,43.5,38.0,30.33,NE,38,5.0,7.0,81,0.00,,,0.00,0,weatherlink.com 1.10,2013-01-30 07:37:00,
2013-01-29 23:52:00,43.3,38.0,30.33,NE,46,0.0,5.0,81,0.00,,,0.00,0,weatherlink.com 1.10,2013-01-30 07:52:00,